Time;durP1;ratioP1;P1;durP2;ratioP2;P2;SDS_P1;SDS_P2;PMS_P1;PMS_P2;Temp;Humidity;BMP_temperature;BMP_pressure;BME280_temperature;BME280_humidity;BME280_pressure;Samples;Min_cycle;Max_cycle;Signal;HPM_P1;HPM_P2
2021/12/28 00:01:16;;;;;;;3.40;1.57;;;8.90;99.90;;;;;;4973355;28;20264;-52
2021/12/28 00:03:43;;;;;;;2.20;1.27;;;9.10;99.90;;;;;;4973979;28;20913;-53
2021/12/28 00:06:10;;;;;;;1.52;1.20;;;8.30;99.90;;;;;;4973540;28;20192;-52
2021/12/28 00:08:36;;;;;;;1.75;1.45;;;8.50;99.90;;;;;;4977903;28;20691;-52
2021/12/28 00:11:04;;;;;;;2.30;1.50;;;9.10;99.90;;;;;;4973603;28;20280;-52
2021/12/28 00:13:30;;;;;;;1.52;1.17;;;9.00;99.90;;;;;;4972640;28;20574;-53
2021/12/28 00:18:25;;;;;;;2.27;1.00;;;9.10;99.90;;;;;;4973077;28;20252;-53
2021/12/28 00:20:53;;;;;;;2.25;1.20;;;8.90;99.90;;;;;;4982913;28;20741;-53
2021/12/28 00:23:22;;;;;;;2.28;1.27;;;8.30;99.90;;;;;;4973091;28;20187;-52
2021/12/28 00:25:50;;;;;;;2.42;1.30;;;8.90;99.90;;;;;;4972857;28;20719;-52
2021/12/28 00:28:16;;;;;;;3.75;1.42;;;8.90;99.90;;;;;;4972113;28;20352;-52
2021/12/28 00:30:42;;;;;;;3.00;1.80;;;8.90;99.90;;;;;;4973028;28;20239;-52
2021/12/28 00:33:08;;;;;;;5.15;1.52;;;8.70;99.90;;;;;;4972917;28;20588;-52
2021/12/28 00:35:37;;;;;;;3.20;1.17;;;8.30;99.90;;;;;;4973078;28;20187;-52
2021/12/28 00:38:04;;;;;;;2.60;1.50;;;8.70;99.90;;;;;;4972904;28;20434;-52
2021/12/28 00:40:31;;;;;;;2.90;1.10;;;8.60;99.90;;;;;;4972842;28;20200;-52
2021/12/28 00:42:57;;;;;;;4.22;1.40;;;8.50;99.90;;;;;;4972109;28;20195;-52
2021/12/28 00:45:24;;;;;;;2.25;1.00;;;8.50;99.90;;;;;;4972698;28;20191;-53
2021/12/28 00:47:50;;;;;;;2.58;1.20;;;8.80;99.90;;;;;;4972398;28;20187;-53
2021/12/28 00:50:17;;;;;;;3.22;1.38;;;8.10;99.90;;;;;;4971972;28;20195;-53
2021/12/28 00:52:44;;;;;;;5.10;1.40;;;8.70;99.90;;;;;;4969359;28;20672;-52
2021/12/28 00:55:11;;;;;;;1.65;1.48;;;8.70;99.90;;;;;;4972208;28;20271;-53
2021/12/28 00:57:37;;;;;;;4.20;1.33;;;8.70;99.90;;;;;;4971423;28;20567;-53
2021/12/28 01:00:11;;;;;;;3.15;1.50;;;8.70;99.90;;;;;;4972399;28;20283;-53
2021/12/28 01:02:37;;;;;;;4.47;1.88;;;8.50;99.90;;;;;;4971287;28;20442;-52
2021/12/28 01:05:04;;;;;;;3.65;1.90;;;8.60;99.90;;;;;;4972348;28;20200;-53
2021/12/28 01:07:29;;;;;;;6.32;1.50;;;8.60;99.90;;;;;;4979798;28;20199;-53
2021/12/28 01:09:55;;;;;;;3.03;1.53;;;8.60;99.90;;;;;;4974275;28;20208;-52
2021/12/28 01:12:21;;;;;;;4.70;1.50;;;8.70;99.90;;;;;;4974996;28;20204;-52
2021/12/28 01:14:47;;;;;;;3.83;1.43;;;8.50;99.90;;;;;;4970933;28;20299;-53
2021/12/28 01:17:12;;;;;;;3.30;1.70;;;8.60;99.90;;;;;;4971953;28;20196;-52
2021/12/28 01:19:38;;;;;;;5.10;1.50;;;8.80;99.90;;;;;;4971943;28;20460;-52
2021/12/28 01:22:05;;;;;;;4.40;1.50;;;8.70;99.90;;;;;;4979490;28;20192;-52
2021/12/28 01:24:32;;;;;;;3.47;1.65;;;9.00;99.90;;;;;;4972078;28;20219;-52
2021/12/28 01:26:58;;;;;;;3.42;1.23;;;9.00;99.90;;;;;;4971717;28;20237;-52
2021/12/28 01:29:24;;;;;;;3.78;2.00;;;8.90;99.90;;;;;;4971962;28;20296;-52
2021/12/28 01:31:51;;;;;;;5.03;1.73;;;9.10;99.90;;;;;;4972129;28;20199;-52
2021/12/28 01:34:18;;;;;;;5.25;1.80;;;8.70;99.90;;;;;;4974260;28;20191;-52
2021/12/28 01:36:44;;;;;;;2.88;1.50;;;8.80;99.90;;;;;;4974106;28;20234;-52
2021/12/28 01:39:10;;;;;;;3.42;1.90;;;8.10;99.90;;;;;;4971216;28;20752;-53
2021/12/28 01:41:37;;;;;;;3.53;1.77;;;8.50;99.90;;;;;;4971301;28;20201;-53
2021/12/28 01:44:06;;;;;;;3.80;1.60;;;8.40;99.90;;;;;;4974746;28;20204;-53
2021/12/28 01:46:34;;;;;;;2.83;1.40;;;8.30;99.90;;;;;;4973498;28;20179;-53
2021/12/28 01:48:59;;;;;;;1.80;1.10;;;8.40;99.90;;;;;;4971641;28;20299;-53
2021/12/28 01:51:27;;;;;;;4.83;1.60;;;8.60;99.90;;;;;;4971284;28;20275;-53
2021/12/28 01:53:56;;;;;;;4.43;1.67;;;8.40;99.90;;;;;;4971718;28;20176;-53
2021/12/28 01:56:34;;;;;;;5.30;3.35;;;8.60;99.90;;;;;;4971045;28;20301;-53
2021/12/28 01:59:00;;;;;;;3.45;2.22;;;7.90;99.90;;;;;;4970381;28;20208;-52
2021/12/28 02:01:27;;;;;;;2.35;1.30;;;7.90;99.90;;;;;;4986761;28;20196;-53
2021/12/28 02:03:53;;;;;;;3.35;1.90;;;8.50;99.90;;;;;;4971682;28;20192;-53
2021/12/28 02:06:19;;;;;;;3.07;1.73;;;8.70;99.90;;;;;;4973067;28;20187;-53
2021/12/28 02:08:45;;;;;;;3.85;2.50;;;8.00;99.90;;;;;;4975241;28;20451;-53
2021/12/28 02:11:13;;;;;;;2.60;1.50;;;8.60;99.90;;;;;;4975613;28;20227;-53
2021/12/28 02:13:39;;;;;;;3.30;1.65;;;8.60;99.90;;;;;;4975078;28;20195;-53
2021/12/28 02:16:05;;;;;;;4.10;1.92;;;8.60;99.90;;;;;;4975272;28;20191;-53
2021/12/28 02:18:33;;;;;;;3.40;1.58;;;8.60;99.90;;;;;;4980687;28;20211;-53
2021/12/28 02:21:00;;;;;;;5.88;2.10;;;8.50;99.90;;;;;;4974666;28;20184;-53
2021/12/28 02:23:26;;;;;;;7.07;2.10;;;8.90;99.90;;;;;;4990101;28;20192;-53
2021/12/28 02:25:52;;;;;;;4.13;1.57;;;8.90;99.90;;;;;;4975306;28;20191;-53
2021/12/28 02:28:17;;;;;;;3.08;1.67;;;8.60;99.90;;;;;;4974351;28;20215;-53
2021/12/28 02:30:48;;;;;;;3.67;1.43;;;8.70;99.90;;;;;;4975443;28;20650;-53
2021/12/28 02:33:14;;;;;;;5.05;2.50;;;8.60;99.90;;;;;;4973881;28;20432;-53
2021/12/28 02:35:41;;;;;;;3.20;1.80;;;8.70;99.90;;;;;;4983035;28;20920;-53
2021/12/28 02:38:09;;;;;;;4.15;1.80;;;8.60;99.90;;;;;;4978195;28;20747;-52
2021/12/28 02:40:36;;;;;;;6.95;2.20;;;8.70;99.90;;;;;;4974953;28;20677;-52
2021/12/28 02:43:04;;;;;;;2.67;1.35;;;8.80;99.90;;;;;;4984974;28;20208;-52
2021/12/28 02:45:34;;;;;;;3.88;1.63;;;8.30;99.90;;;;;;4975137;28;20195;-53
2021/12/28 02:48:00;;;;;;;2.60;1.40;;;9.00;99.90;;;;;;4974384;28;20189;-53
2021/12/28 02:50:30;;;;;;;2.90;1.65;;;8.90;99.90;;;;;;4990574;28;20200;-53
2021/12/28 02:52:57;;;;;;;9.57;2.00;;;8.70;99.90;;;;;;4981496;28;20188;-53
2021/12/28 02:55:28;;;;;;;4.82;1.70;;;8.80;99.90;;;;;;4975014;28;20284;-52
2021/12/28 02:58:09;;;;;;;4.68;1.85;;;8.80;99.90;;;;;;4973747;28;20196;-53
2021/12/28 03:00:48;;;;;;;8.27;2.05;;;9.10;99.90;;;;;;4974522;28;20181;-53
2021/12/28 03:03:18;;;;;;;3.35;1.50;;;9.00;99.90;;;;;;4974379;28;20192;-53
2021/12/28 03:05:47;;;;;;;5.50;1.95;;;9.20;99.90;;;;;;4973243;28;20180;-53
2021/12/28 03:08:15;;;;;;;8.52;1.85;;;9.00;99.90;;;;;;4973900;28;20208;-53
2021/12/28 03:10:43;;;;;;;2.80;1.58;;;8.80;99.90;;;;;;4975062;28;20257;-53
2021/12/28 03:13:14;;;;;;;3.50;1.70;;;8.80;99.90;;;;;;4973979;28;20673;-53
2021/12/28 03:15:40;;;;;;;5.50;1.88;;;9.10;99.90;;;;;;4974246;28;20204;-52
2021/12/28 03:18:05;;;;;;;3.07;1.40;;;8.80;99.90;;;;;;4973412;28;20342;-52
2021/12/28 03:20:31;;;;;;;5.77;1.73;;;8.90;99.90;;;;;;4973497;28;20442;-53
2021/12/28 03:22:56;;;;;;;2.70;1.90;;;8.30;99.90;;;;;;4974214;28;20619;-53
2021/12/28 03:25:22;;;;;;;3.20;1.87;;;8.90;99.90;;;;;;4973945;28;20188;-53
2021/12/28 03:27:48;;;;;;;3.43;1.60;;;8.90;99.90;;;;;;4975625;28;20192;-53
2021/12/28 03:30:16;;;;;;;3.97;1.60;;;8.80;99.90;;;;;;4974439;28;20409;-52
2021/12/28 03:32:43;;;;;;;4.28;1.80;;;8.60;99.90;;;;;;4974049;28;20191;-53
2021/12/28 03:35:11;;;;;;;3.25;1.70;;;8.80;99.90;;;;;;4974103;28;20275;-52
2021/12/28 03:37:38;;;;;;;4.68;2.30;;;8.60;99.90;;;;;;4972971;28;20189;-53
2021/12/28 03:40:07;;;;;;;4.07;1.85;;;8.70;99.90;;;;;;4973773;28;20232;-52
2021/12/28 03:42:32;;;;;;;4.47;1.95;;;8.60;99.90;;;;;;4973126;28;20195;-53
2021/12/28 03:44:58;;;;;;;4.80;1.70;;;8.60;99.90;;;;;;4986814;28;20191;-53
2021/12/28 03:47:24;;;;;;;4.10;2.33;;;8.80;99.90;;;;;;4972358;28;20192;-53
2021/12/28 03:49:50;;;;;;;5.20;2.00;;;8.90;99.90;;;;;;4973756;28;20215;-51
2021/12/28 03:52:15;;;;;;;4.60;1.97;;;8.70;99.90;;;;;;4973715;28;20278;-53
2021/12/28 03:54:41;;;;;;;2.40;1.40;;;8.50;99.90;;;;;;4973572;28;20275;-51
2021/12/28 03:57:07;;;;;;;5.23;1.70;;;8.60;99.90;;;;;;4972606;28;20282;-53
2021/12/28 03:59:32;;;;;;;3.83;1.60;;;8.40;99.90;;;;;;4973255;28;20571;-51
2021/12/28 04:01:58;;;;;;;4.70;1.90;;;8.60;99.90;;;;;;4979970;28;20243;-53
2021/12/28 04:04:25;;;;;;;7.13;2.87;;;8.60;99.90;;;;;;4974916;28;20195;-53
2021/12/28 04:06:50;;;;;;;4.53;1.75;;;8.80;99.90;;;;;;4980745;28;20191;-53
2021/12/28 04:09:23;;;;;;;3.23;2.10;;;8.60;99.90;;;;;;4972760;28;20216;-53
2021/12/28 04:11:49;;;;;;;4.13;2.03;;;8.90;99.90;;;;;;4976272;28;20210;-53
2021/12/28 04:14:15;;;;;;;6.28;2.58;;;8.50;99.90;;;;;;4973636;28;20188;-50
2021/12/28 04:16:41;;;;;;;3.20;1.83;;;8.50;99.90;;;;;;4973693;28;20192;-51
2021/12/28 04:19:07;;;;;;;4.33;2.00;;;8.80;99.90;;;;;;4972838;28;20481;-50
2021/12/28 04:21:34;;;;;;;2.83;1.90;;;8.60;99.90;;;;;;4972340;28;20527;-51
2021/12/28 04:24:01;;;;;;;2.95;1.52;;;8.40;99.90;;;;;;4974445;28;20180;-51
2021/12/28 04:26:28;;;;;;;7.30;2.35;;;8.70;99.90;;;;;;4972704;28;20200;-51
2021/12/28 04:28:54;;;;;;;4.47;2.08;;;8.70;99.90;;;;;;4972342;28;20698;-51
2021/12/28 04:31:20;;;;;;;3.83;1.60;;;8.80;99.90;;;;;;4972955;28;20184;-51
2021/12/28 04:33:46;;;;;;;4.10;2.03;;;8.70;99.90;;;;;;4973545;28;20192;-53
2021/12/28 04:36:16;;;;;;;5.57;3.67;;;8.90;99.90;;;;;;4972466;28;20398;-51
2021/12/28 04:38:43;;;;;;;4.53;1.85;;;8.40;99.90;;;;;;4984307;28;20489;-52
2021/12/28 04:41:10;;;;;;;5.68;1.60;;;8.90;99.90;;;;;;4972682;28;20224;-52
2021/12/28 04:43:37;;;;;;;6.88;2.65;;;8.90;99.90;;;;;;4972195;28;20205;-52
2021/12/28 04:46:04;;;;;;;5.82;2.35;;;8.70;99.90;;;;;;4972667;28;20677;-52
2021/12/28 04:48:30;;;;;;;2.47;1.55;;;8.20;99.90;;;;;;4972470;28;20263;-52
2021/12/28 04:50:56;;;;;;;3.00;1.80;;;8.70;99.90;;;;;;4973689;28;20213;-51
2021/12/28 04:53:22;;;;;;;2.83;1.60;;;8.70;99.90;;;;;;4972623;28;20184;-52
2021/12/28 04:55:50;;;;;;;4.00;2.25;;;9.00;99.90;;;;;;4972482;28;20192;-52
2021/12/28 04:58:16;;;;;;;3.80;2.03;;;9.10;99.90;;;;;;4971375;28;20227;-52
2021/12/28 05:00:44;;;;;;;2.35;1.77;;;9.00;99.90;;;;;;4972248;28;20537;-52
2021/12/28 05:03:10;;;;;;;1.98;1.65;;;9.20;99.90;;;;;;4959690;28;20181;-52
2021/12/28 05:05:38;;;;;;;5.50;2.50;;;9.10;99.90;;;;;;4971782;28;20694;-52
2021/12/28 05:08:05;;;;;;;6.47;2.00;;;8.90;99.90;;;;;;4975648;28;20215;-52
2021/12/28 05:10:32;;;;;;;4.25;1.70;;;9.20;99.90;;;;;;4978154;28;20275;-52
2021/12/28 05:12:58;;;;;;;3.88;1.67;;;8.90;99.90;;;;;;4971754;28;20189;-52
2021/12/28 05:15:24;;;;;;;4.13;1.30;;;9.20;99.90;;;;;;4971725;28;20423;-52
2021/12/28 05:17:49;;;;;;;5.07;1.70;;;9.00;99.90;;;;;;4971059;28;20188;-52
2021/12/28 05:20:15;;;;;;;5.07;1.67;;;9.10;99.90;;;;;;4971707;28;20705;-52
2021/12/28 05:22:41;;;;;;;3.53;1.33;;;9.20;99.90;;;;;;4971330;28;20192;-52
2021/12/28 05:25:07;;;;;;;2.67;1.50;;;9.00;99.90;;;;;;4976715;28;20266;-52
2021/12/28 05:27:33;;;;;;;2.08;1.60;;;9.40;99.90;;;;;;4972291;28;20525;-52
2021/12/28 05:29:59;;;;;;;5.00;2.20;;;9.30;99.90;;;;;;4972012;28;20215;-52
2021/12/28 05:32:24;;;;;;;2.60;1.80;;;9.30;99.90;;;;;;4971659;28;20184;-52
2021/12/28 05:34:50;;;;;;;2.90;2.10;;;9.00;99.90;;;;;;4971546;28;20191;-51
2021/12/28 05:37:16;;;;;;;3.43;1.73;;;9.10;99.90;;;;;;4985531;28;20283;-52
2021/12/28 05:39:42;;;;;;;5.50;1.70;;;9.00;99.90;;;;;;4971140;28;20255;-52
2021/12/28 05:42:08;;;;;;;2.80;1.77;;;9.10;99.90;;;;;;4971800;28;20457;-53
2021/12/28 05:44:34;;;;;;;2.28;1.58;;;9.30;99.90;;;;;;4971469;28;20207;-52
2021/12/28 05:46:59;;;;;;;3.07;1.60;;;9.10;99.90;;;;;;4971704;28;20275;-52
2021/12/28 05:49:25;;;;;;;4.00;1.80;;;9.30;99.90;;;;;;4971236;28;21115;-52
2021/12/28 05:51:51;;;;;;;3.20;2.07;;;9.10;99.90;;;;;;4969432;28;20196;-52
2021/12/28 05:54:17;;;;;;;3.88;2.90;;;9.30;99.90;;;;;;4971472;28;20192;-53
2021/12/28 05:56:44;;;;;;;4.30;2.45;;;9.20;99.90;;;;;;4973075;28;20199;-52
2021/12/28 05:59:10;;;;;;;6.13;2.20;;;9.30;99.90;;;;;;4980275;28;20280;-52
2021/12/28 06:01:36;;;;;;;4.68;1.90;;;9.10;99.90;;;;;;4971794;28;20180;-53
2021/12/28 06:04:02;;;;;;;7.00;3.67;;;9.10;99.90;;;;;;4971637;28;20184;-52
2021/12/28 06:06:28;;;;;;;3.72;2.10;;;9.00;99.90;;;;;;4985695;28;20246;-53
2021/12/28 06:08:53;;;;;;;5.43;2.87;;;9.50;99.90;;;;;;4970746;28;20287;-52
2021/12/28 06:11:20;;;;;;;3.80;2.90;;;9.20;99.90;;;;;;4971335;28;20937;-52
2021/12/28 06:13:46;;;;;;;5.05;2.60;;;8.90;99.90;;;;;;4976414;28;20658;-52
2021/12/28 06:16:12;;;;;;;7.27;1.87;;;8.90;99.90;;;;;;4971633;28;20185;-52
2021/12/28 06:18:38;;;;;;;2.08;1.88;;;9.10;99.90;;;;;;4970876;28;20278;-51
2021/12/28 06:21:04;;;;;;;3.72;2.15;;;9.00;99.90;;;;;;4970729;28;20184;-52
2021/12/28 06:23:30;;;;;;;5.65;2.10;;;9.00;99.90;;;;;;4971131;28;20180;-52
2021/12/28 06:25:56;;;;;;;4.70;3.05;;;9.20;99.90;;;;;;4971332;28;20645;-52
2021/12/28 06:28:22;;;;;;;5.75;2.83;;;9.10;99.90;;;;;;4972366;28;20224;-52
2021/12/28 06:30:48;;;;;;;5.33;2.90;;;9.00;99.90;;;;;;4971095;28;20196;-52
2021/12/28 06:33:14;;;;;;;6.82;2.90;;;8.80;99.90;;;;;;4971490;28;20534;-52
2021/12/28 06:35:39;;;;;;;4.40;2.60;;;9.20;99.90;;;;;;4970653;28;20193;-52
2021/12/28 06:38:05;;;;;;;4.97;3.00;;;9.00;99.90;;;;;;4970713;28;20208;-52
2021/12/28 06:40:31;;;;;;;3.17;1.60;;;9.20;99.90;;;;;;4971301;28;20267;-52
2021/12/28 06:42:57;;;;;;;1.97;1.50;;;9.10;99.90;;;;;;4970574;28;20214;-53
2021/12/28 06:45:22;;;;;;;2.13;1.30;;;9.30;99.90;;;;;;4971211;28;20192;-53
2021/12/28 06:47:48;;;;;;;3.17;1.57;;;9.30;99.90;;;;;;4970892;28;20435;-53
2021/12/28 06:50:14;;;;;;;1.10;1.00;;;9.30;99.90;;;;;;4973586;28;20247;-53
2021/12/28 06:52:40;;;;;;;3.17;1.07;;;9.40;99.90;;;;;;4973809;28;20410;-52
2021/12/28 06:55:08;;;;;;;1.37;1.00;;;9.40;99.90;;;;;;4974703;28;20467;-53
2021/12/28 06:57:34;;;;;;;1.02;0.73;;;9.30;99.90;;;;;;4973853;28;20184;-52
2021/12/28 07:00:00;;;;;;;1.75;1.10;;;9.50;99.90;;;;;;4974360;28;20217;-51
2021/12/28 07:02:26;;;;;;;2.95;0.98;;;9.70;99.90;;;;;;4974191;28;20247;-52
2021/12/28 07:04:52;;;;;;;2.20;0.93;;;9.50;99.90;;;;;;4974265;28;20646;-51
2021/12/28 07:07:19;;;;;;;1.75;0.90;;;9.40;99.90;;;;;;4976114;28;20188;-53
2021/12/28 07:09:45;;;;;;;0.80;0.80;;;9.70;99.90;;;;;;4989256;28;20208;-52
2021/12/28 07:12:11;;;;;;;1.07;0.97;;;9.50;99.90;;;;;;4973875;28;20267;-52
2021/12/28 07:14:37;;;;;;;0.80;0.80;;;9.70;99.90;;;;;;4974062;28;20831;-52
2021/12/28 07:17:03;;;;;;;0.85;0.75;;;9.50;99.90;;;;;;4973953;28;20231;-52
2021/12/28 07:19:29;;;;;;;0.82;0.70;;;9.50;99.90;;;;;;4974070;28;20224;-52
2021/12/28 07:21:54;;;;;;;0.73;0.60;;;9.50;99.90;;;;;;4973721;28;20205;-52
2021/12/28 07:24:20;;;;;;;1.43;0.70;;;9.60;99.90;;;;;;4979608;28;20941;-52
2021/12/28 07:26:46;;;;;;;1.03;0.87;;;9.30;99.90;;;;;;4977983;28;20187;-52
2021/12/28 07:29:12;;;;;;;1.10;0.77;;;9.50;99.90;;;;;;4973469;28;20343;-52
2021/12/28 07:31:39;;;;;;;0.77;0.70;;;9.80;99.90;;;;;;4974049;28;20275;-53
2021/12/28 07:34:04;;;;;;;0.63;0.60;;;9.80;99.90;;;;;;4974105;28;20446;-53
2021/12/28 07:36:30;;;;;;;1.60;1.10;;;9.70;99.90;;;;;;4973332;28;20204;-52
2021/12/28 07:38:56;;;;;;;0.80;0.80;;;10.00;99.90;;;;;;4973603;28;20480;-52
2021/12/28 07:41:22;;;;;;;1.95;1.17;;;10.00;99.90;;;;;;4974374;28;20185;-51
2021/12/28 07:43:48;;;;;;;0.82;0.80;;;10.10;99.90;;;;;;4984590;28;20204;-52
2021/12/28 07:46:14;;;;;;;2.70;0.90;;;10.00;99.90;;;;;;4973808;28;20199;-52
2021/12/28 07:48:40;;;;;;;1.90;1.08;;;10.20;99.90;;;;;;4973245;28;20271;-52
2021/12/28 07:51:07;;;;;;;1.60;1.10;;;10.20;99.90;;;;;;4973119;28;20231;-53
2021/12/28 07:53:34;;;;;;;2.47;0.98;;;10.10;99.90;;;;;;4973547;28;20192;-52
2021/12/28 07:56:00;;;;;;;1.10;0.88;;;10.30;99.90;;;;;;4973488;28;20642;-52
2021/12/28 07:58:27;;;;;;;0.80;0.70;;;10.30;99.90;;;;;;4972943;28;20227;-52
2021/12/28 08:00:53;;;;;;;0.77;0.73;;;10.30;99.90;;;;;;4973261;28;20185;-52
2021/12/28 08:03:19;;;;;;;1.87;0.80;;;10.20;99.90;;;;;;4973073;28;20191;-51
2021/12/28 08:05:45;;;;;;;1.00;0.70;;;10.50;99.90;;;;;;4980875;28;20218;-53
2021/12/28 08:08:11;;;;;;;0.80;0.80;;;10.40;99.90;;;;;;4973182;28;20456;-52
2021/12/28 08:10:38;;;;;;;1.60;0.70;;;10.30;99.90;;;;;;4973237;28;20218;-53
2021/12/28 08:13:03;;;;;;;1.63;1.10;;;10.40;99.90;;;;;;4978057;28;20199;-53
2021/12/28 08:15:29;;;;;;;1.07;0.80;;;10.30;99.90;;;;;;4978228;28;20191;-52
2021/12/28 08:17:55;;;;;;;0.93;0.70;;;10.30;99.90;;;;;;4973022;28;20196;-53
2021/12/28 08:20:21;;;;;;;2.10;1.40;;;10.40;99.90;;;;;;4972878;28;20200;-53
2021/12/28 08:22:48;;;;;;;0.67;0.60;;;10.50;99.90;;;;;;4982316;28;20197;-53
2021/12/28 08:25:16;;;;;;;0.80;0.70;;;10.40;99.90;;;;;;4971561;28;20189;-53
2021/12/28 08:27:42;;;;;;;0.70;0.60;;;10.40;99.90;;;;;;4972459;28;20189;-52
2021/12/28 08:30:10;;;;;;;1.02;0.57;;;10.40;99.90;;;;;;4972653;28;20302;-53
2021/12/28 08:32:37;;;;;;;1.50;0.70;;;10.70;99.90;;;;;;4976303;28;20217;-53
2021/12/28 08:35:03;;;;;;;1.58;0.60;;;10.40;99.90;;;;;;4972735;28;20236;-52
2021/12/28 08:37:29;;;;;;;0.60;0.50;;;10.30;99.90;;;;;;4982914;28;20192;-53
2021/12/28 08:39:55;;;;;;;0.77;0.50;;;10.30;99.90;;;;;;4972888;28;20528;-52
2021/12/28 08:42:21;;;;;;;0.73;0.70;;;10.50;99.90;;;;;;4975779;28;20551;-53
2021/12/28 08:44:48;;;;;;;0.85;0.60;;;10.30;99.90;;;;;;4972635;28;20926;-51
2021/12/28 08:47:14;;;;;;;0.82;0.60;;;10.40;99.90;;;;;;4972414;28;20663;-51
2021/12/28 08:49:40;;;;;;;1.58;0.63;;;10.60;99.90;;;;;;4973195;28;20210;-51
2021/12/28 08:52:06;;;;;;;0.70;0.60;;;10.60;99.90;;;;;;4982710;28;20195;-52
2021/12/28 08:54:32;;;;;;;1.90;0.60;;;10.80;99.90;;;;;;4972739;28;20440;-52
2021/12/28 08:56:58;;;;;;;1.47;0.70;;;10.80;99.90;;;;;;4971605;28;20197;-52
2021/12/28 08:59:24;;;;;;;0.88;0.70;;;10.90;99.90;;;;;;4972278;28;20485;-53
2021/12/28 09:01:50;;;;;;;1.00;0.60;;;11.00;99.90;;;;;;4972127;28;20177;-53
2021/12/28 09:04:18;;;;;;;0.90;0.60;;;10.90;99.90;;;;;;4972186;28;20913;-53
2021/12/28 09:06:45;;;;;;;0.70;0.60;;;11.00;99.90;;;;;;4974057;28;20185;-53
2021/12/28 09:09:11;;;;;;;0.70;0.60;;;10.90;99.90;;;;;;4971714;28;20236;-53
2021/12/28 09:11:37;;;;;;;0.70;0.50;;;10.90;99.90;;;;;;4971355;28;20635;-53
2021/12/28 09:14:03;;;;;;;1.73;0.90;;;10.90;99.90;;;;;;4971581;28;20189;-53
2021/12/28 09:16:29;;;;;;;0.82;0.73;;;11.00;99.90;;;;;;4971859;28;20642;-52
2021/12/28 09:18:55;;;;;;;1.07;0.73;;;11.10;99.90;;;;;;4971531;28;20264;-52
2021/12/28 09:21:20;;;;;;;0.90;0.60;;;11.10;99.90;;;;;;4971539;28;20469;-52
2021/12/28 09:23:46;;;;;;;0.77;0.50;;;11.30;99.90;;;;;;4965712;28;20181;-51
2021/12/28 09:26:12;;;;;;;3.00;1.20;;;11.50;99.90;;;;;;4971665;28;20182;-53
2021/12/28 09:28:37;;;;;;;1.73;0.70;;;11.50;99.90;;;;;;4971168;28;20631;-53
2021/12/28 09:31:03;;;;;;;0.60;0.50;;;11.50;99.90;;;;;;4971692;28;20186;-51
2021/12/28 09:33:29;;;;;;;1.13;0.60;;;11.60;99.90;;;;;;4971815;28;20222;-53
2021/12/28 09:35:57;;;;;;;1.63;1.33;;;11.80;99.90;;;;;;4971768;28;20188;-53
2021/12/28 09:38:23;;;;;;;0.80;0.63;;;11.90;99.90;;;;;;4970829;28;20469;-53
2021/12/28 09:40:50;;;;;;;0.80;0.50;;;11.70;99.90;;;;;;4972472;28;20233;-53
2021/12/28 09:43:16;;;;;;;0.70;0.55;;;11.80;99.90;;;;;;4970605;28;20199;-52
2021/12/28 09:45:42;;;;;;;0.65;0.60;;;11.90;99.90;;;;;;4971960;28;20212;-52
2021/12/28 09:48:10;;;;;;;0.80;0.50;;;12.00;99.90;;;;;;4971233;28;20211;-52
2021/12/28 09:50:39;;;;;;;0.60;0.50;;;11.60;99.90;;;;;;4971096;28;20508;-51
2021/12/28 09:53:05;;;;;;;0.70;0.57;;;12.00;99.90;;;;;;4970036;28;20192;-53
2021/12/28 09:55:31;;;;;;;1.35;0.80;;;12.10;99.90;;;;;;4971389;28;20649;-52
2021/12/28 09:57:58;;;;;;;0.98;0.88;;;11.90;99.90;;;;;;4970830;28;20334;-52
2021/12/28 10:00:25;;;;;;;1.10;0.70;;;12.10;99.90;;;;;;4971500;28;20199;-52
2021/12/28 10:02:51;;;;;;;0.80;0.60;;;11.90;99.90;;;;;;4971330;28;20607;-52
2021/12/28 10:05:21;;;;;;;0.90;0.80;;;12.10;99.90;;;;;;4971414;28;20392;-52
2021/12/28 10:07:58;;;;;;;1.17;0.70;;;12.60;99.90;;;;;;4977306;28;20185;-53
2021/12/28 10:10:32;;;;;;;0.95;0.90;;;12.90;99.90;;;;;;4971443;28;20180;-52
2021/12/28 10:13:01;;;;;;;1.75;1.13;;;12.60;99.90;;;;;;4970677;28;20257;-53
2021/12/28 10:15:32;;;;;;;0.75;0.63;;;12.70;99.90;;;;;;4983332;28;20191;-52
2021/12/28 10:18:02;;;;;;;0.88;0.70;;;13.30;99.90;;;;;;4970540;28;20182;-51
2021/12/28 10:20:41;;;;;;;1.05;0.85;;;13.00;99.90;;;;;;4985019;28;20200;-53
2021/12/28 10:23:10;;;;;;;0.60;0.60;;;12.90;99.90;;;;;;4969907;28;20198;-53
2021/12/28 10:25:45;;;;;;;0.73;0.70;;;13.50;99.90;;;;;;4971114;28;20183;-53
2021/12/28 10:28:32;;;;;;;1.33;0.70;;;13.30;99.90;;;;;;4975272;28;20238;-53
2021/12/28 10:31:17;;;;;;;0.90;0.60;;;13.20;99.90;;;;;;4974704;28;20262;-52
2021/12/28 10:33:43;;;;;;;0.90;0.70;;;13.20;99.90;;;;;;4974886;28;20190;-51
2021/12/28 10:36:14;;;;;;;2.40;1.50;;;13.20;99.90;;;;;;4963791;28;20267;-52
2021/12/28 10:38:47;;;;;;;1.50;0.60;;;13.60;99.90;;;;;;4962167;28;20474;-54
2021/12/28 10:41:19;;;;;;;1.02;0.70;;;13.70;99.90;;;;;;4974714;28;20212;-52
2021/12/28 10:43:49;;;;;;;0.80;0.80;;;13.60;99.90;;;;;;4983838;28;20250;-53
2021/12/28 10:46:20;;;;;;;1.00;0.70;;;14.30;99.90;;;;;;4989829;28;20772;-53
2021/12/28 10:48:52;;;;;;;0.70;0.52;;;14.60;99.90;;;;;;4973796;28;20219;-53
2021/12/28 10:51:23;;;;;;;1.33;0.60;;;14.70;99.90;;;;;;4974256;28;20184;-52
2021/12/28 10:56:25;;;;;;;0.70;0.60;;;14.80;99.90;;;;;;4974220;28;20223;-53
2021/12/28 10:58:53;;;;;;;1.65;0.70;;;14.90;99.90;;;;;;4973985;28;20223;-52
2021/12/28 11:01:24;;;;;;;0.70;0.50;;;14.90;99.90;;;;;;4974200;28;20642;-52
2021/12/28 11:03:59;;;;;;;2.38;0.60;;;14.70;99.90;;;;;;4974400;28;20188;-52
2021/12/28 11:06:33;;;;;;;0.90;0.70;;;14.60;99.90;;;;;;4974570;28;20232;-52
2021/12/28 11:09:11;;;;;;;0.85;0.70;;;14.60;99.90;;;;;;4974112;28;20696;-53
2021/12/28 11:11:38;;;;;;;0.70;0.50;;;14.70;99.90;;;;;;4974053;28;20282;-52
2021/12/28 11:14:16;;;;;;;0.82;0.82;;;14.60;99.90;;;;;;4974213;28;20246;-51
2021/12/28 11:16:49;;;;;;;1.23;0.60;;;14.70;99.90;;;;;;4974124;28;20184;-51
2021/12/28 11:19:24;;;;;;;0.90;0.77;;;14.90;99.90;;;;;;4961492;28;20224;-53
2021/12/28 11:21:53;;;;;;;0.70;0.50;;;15.30;99.90;;;;;;4975403;28;20191;-52
2021/12/28 11:24:19;;;;;;;0.85;0.55;;;14.90;99.90;;;;;;4984353;28;20173;-53
2021/12/28 11:26:50;;;;;;;0.80;0.70;;;14.70;99.90;;;;;;4973554;28;20186;-53
2021/12/28 11:29:22;;;;;;;1.00;0.80;;;14.50;99.90;;;;;;4973881;28;20204;-52
2021/12/28 11:31:51;;;;;;;0.85;0.70;;;14.40;99.90;;;;;;4973730;28;20283;-52
2021/12/28 11:34:21;;;;;;;0.73;0.60;;;14.30;99.90;;;;;;4973621;28;20271;-53
2021/12/28 11:37:05;;;;;;;0.80;0.63;;;14.50;99.90;;;;;;4981026;28;20203;-53
2021/12/28 11:39:34;;;;;;;0.70;0.60;;;14.00;99.90;;;;;;4972595;28;20752;-53
2021/12/28 11:42:00;;;;;;;1.00;0.80;;;14.30;99.90;;;;;;4977765;28;20187;-53
2021/12/28 11:44:27;;;;;;;0.80;0.70;;;14.20;99.90;;;;;;4978807;28;20989;-53
2021/12/28 11:46:55;;;;;;;1.23;0.90;;;14.30;99.90;;;;;;4973793;28;20188;-53
2021/12/28 11:49:25;;;;;;;0.70;0.60;;;14.10;99.90;;;;;;4973280;28;20227;-53
2021/12/28 11:51:52;;;;;;;1.08;0.60;;;14.10;99.90;;;;;;4972980;28;20264;-53
2021/12/28 11:54:19;;;;;;;1.02;0.70;;;14.00;99.90;;;;;;4973367;28;20188;-53
2021/12/28 11:56:49;;;;;;;1.48;1.00;;;13.80;99.90;;;;;;4973444;28;20600;-53
2021/12/28 11:59:28;;;;;;;0.88;0.80;;;13.90;99.90;;;;;;4973249;28;20216;-53
2021/12/28 12:01:54;;;;;;;0.73;0.70;;;14.00;99.90;;;;;;4973186;28;20222;-53
2021/12/28 12:04:34;;;;;;;0.70;0.60;;;13.90;99.90;;;;;;4973152;28;20183;-53
2021/12/28 12:07:05;;;;;;;1.90;0.93;;;13.70;99.90;;;;;;4972570;28;20454;-53
2021/12/28 12:09:55;;;;;;;1.88;0.68;;;13.70;99.90;;;;;;4973045;28;20568;-53
2021/12/28 12:12:27;;;;;;;0.80;0.80;;;13.60;99.90;;;;;;4973000;28;20660;-52
2021/12/28 12:14:58;;;;;;;1.10;0.80;;;13.90;99.90;;;;;;4979493;28;20204;-53
2021/12/28 12:17:43;;;;;;;1.40;0.88;;;13.60;99.90;;;;;;4972834;28;20222;-53
2021/12/28 12:20:23;;;;;;;0.80;0.60;;;13.70;99.90;;;;;;4973022;28;20302;-52
2021/12/28 12:23:10;;;;;;;1.65;0.75;;;13.70;99.90;;;;;;4975408;28;20282;-53
2021/12/28 12:25:41;;;;;;;3.85;1.00;;;13.80;99.90;;;;;;4972878;28;20207;-53
2021/12/28 12:28:08;;;;;;;0.70;0.60;;;13.50;99.90;;;;;;4972177;28;20199;-53
2021/12/28 12:30:33;;;;;;;1.95;1.50;;;13.50;99.90;;;;;;4973340;28;20184;-52
2021/12/28 12:33:01;;;;;;;1.27;1.17;;;13.60;99.90;;;;;;4972920;28;20192;-55
2021/12/28 12:35:28;;;;;;;0.90;0.70;;;13.50;99.90;;;;;;4972510;28;20262;-53
2021/12/28 12:37:54;;;;;;;0.75;0.75;;;13.70;99.90;;;;;;4971914;28;20220;-53
2021/12/28 12:40:19;;;;;;;1.27;1.10;;;13.50;99.90;;;;;;4972882;28;20266;-53
2021/12/28 12:43:12;;;;;;;2.70;0.80;;;13.70;99.90;;;;;;4981805;28;20819;-52
2021/12/28 12:45:57;;;;;;;0.88;0.70;;;13.60;99.90;;;;;;4972649;28;20227;-53
2021/12/28 12:48:52;;;;;;;0.70;0.60;;;13.50;99.90;;;;;;4979482;28;20231;-53
2021/12/28 12:51:21;;;;;;;1.05;0.80;;;13.90;99.90;;;;;;4977296;28;20188;-52
2021/12/28 12:54:02;;;;;;;1.63;0.90;;;13.60;99.90;;;;;;4970765;28;20188;-54
2021/12/28 12:56:38;;;;;;;0.90;0.90;;;13.50;99.90;;;;;;4971456;28;20274;-52
2021/12/28 12:59:10;;;;;;;0.70;0.60;;;13.70;99.90;;;;;;4976339;28;20732;-52
2021/12/28 13:01:38;;;;;;;1.00;0.70;;;13.40;99.90;;;;;;4972450;28;20184;-52